sensor_id;sensor_type;location;lat;lon;timestamp;P1;durP1;ratioP1;P2;durP2;ratioP2
25009;SDS011;13026;49.486;10.926;2022-07-24T00:00:55;10.27;;;9.18;;
25009;SDS011;13026;49.486;10.926;2022-07-24T00:03:20;11.05;;;9.95;;
25009;SDS011;13026;49.486;10.926;2022-07-24T00:05:46;11.40;;;10.20;;
25009;SDS011;13026;49.486;10.926;2022-07-24T00:08:11;10.68;;;9.40;;
25009;SDS011;13026;49.486;10.926;2022-07-24T00:10:37;11.82;;;9.73;;
25009;SDS011;13026;49.486;10.926;2022-07-24T00:13:03;10.80;;;9.65;;
25009;SDS011;13026;49.486;10.926;2022-07-24T00:15:28;11.45;;;9.70;;
25009;SDS011;13026;49.486;10.926;2022-07-24T00:17:54;10.48;;;9.38;;
25009;SDS011;13026;49.486;10.926;2022-07-24T00:20:19;12.63;;;10.18;;
25009;SDS011;13026;49.486;10.926;2022-07-24T00:22:45;12.68;;;9.45;;
25009;SDS011;13026;49.486;10.926;2022-07-24T00:25:10;10.60;;;9.27;;
25009;SDS011;13026;49.486;10.926;2022-07-24T00:27:37;10.32;;;9.20;;
25009;SDS011;13026;49.486;10.926;2022-07-24T00:30:03;10.00;;;9.02;;
25009;SDS011;13026;49.486;10.926;2022-07-24T00:32:29;9.75;;;8.90;;
25009;SDS011;13026;49.486;10.926;2022-07-24T00:34:54;10.20;;;9.30;;
25009;SDS011;13026;49.486;10.926;2022-07-24T00:37:20;9.50;;;8.70;;
25009;SDS011;13026;49.486;10.926;2022-07-24T00:39:45;9.98;;;8.95;;
25009;SDS011;13026;49.486;10.926;2022-07-24T00:42:11;12.13;;;8.70;;
25009;SDS011;13026;49.486;10.926;2022-07-24T00:44:36;10.50;;;8.93;;
25009;SDS011;13026;49.486;10.926;2022-07-24T00:47:02;12.38;;;9.05;;
25009;SDS011;13026;49.486;10.926;2022-07-24T00:49:27;13.85;;;9.60;;
25009;SDS011;13026;49.486;10.926;2022-07-24T00:51:53;10.38;;;8.38;;
25009;SDS011;13026;49.486;10.926;2022-07-24T00:54:19;9.55;;;8.65;;
25009;SDS011;13026;49.486;10.926;2022-07-24T00:56:47;11.43;;;9.32;;
25009;SDS011;13026;49.486;10.926;2022-07-24T00:59:14;11.02;;;9.95;;
25009;SDS011;13026;49.486;10.926;2022-07-24T01:01:39;13.20;;;9.80;;
25009;SDS011;13026;49.486;10.926;2022-07-24T01:04:05;10.70;;;9.60;;
25009;SDS011;13026;49.486;10.926;2022-07-24T01:06:31;10.15;;;8.95;;
25009;SDS011;13026;49.486;10.926;2022-07-24T01:08:57;12.68;;;9.13;;
25009;SDS011;13026;49.486;10.926;2022-07-24T01:11:22;9.57;;;8.57;;
25009;SDS011;13026;49.486;10.926;2022-07-24T01:13:48;13.90;;;10.00;;
25009;SDS011;13026;49.486;10.926;2022-07-24T01:19:15;12.48;;;9.88;;
25009;SDS011;13026;49.486;10.926;2022-07-24T01:21:50;17.00;;;9.60;;
25009;SDS011;13026;49.486;10.926;2022-07-24T01:24:18;16.40;;;9.85;;
25009;SDS011;13026;49.486;10.926;2022-07-24T01:26:44;10.50;;;9.38;;
25009;SDS011;13026;49.486;10.926;2022-07-24T01:29:10;11.73;;;10.55;;
25009;SDS011;13026;49.486;10.926;2022-07-24T01:31:36;11.45;;;10.38;;
25009;SDS011;13026;49.486;10.926;2022-07-24T01:34:03;11.23;;;10.13;;
25009;SDS011;13026;49.486;10.926;2022-07-24T01:36:29;14.85;;;10.15;;
25009;SDS011;13026;49.486;10.926;2022-07-24T01:38:55;14.63;;;10.65;;
25009;SDS011;13026;49.486;10.926;2022-07-24T01:41:20;12.30;;;10.38;;
25009;SDS011;13026;49.486;10.926;2022-07-24T01:43:46;11.98;;;10.38;;
25009;SDS011;13026;49.486;10.926;2022-07-24T01:46:12;10.88;;;9.75;;
25009;SDS011;13026;49.486;10.926;2022-07-24T01:48:39;10.85;;;9.85;;
25009;SDS011;13026;49.486;10.926;2022-07-24T01:51:07;11.20;;;10.13;;
25009;SDS011;13026;49.486;10.926;2022-07-24T01:53:33;10.65;;;9.65;;
25009;SDS011;13026;49.486;10.926;2022-07-24T01:55:58;10.95;;;9.80;;
25009;SDS011;13026;49.486;10.926;2022-07-24T01:58:24;11.27;;;10.05;;
25009;SDS011;13026;49.486;10.926;2022-07-24T02:00:49;11.68;;;10.40;;
25009;SDS011;13026;49.486;10.926;2022-07-24T02:03:15;11.60;;;9.52;;
25009;SDS011;13026;49.486;10.926;2022-07-24T02:05:40;11.25;;;10.15;;
25009;SDS011;13026;49.486;10.926;2022-07-24T02:08:06;11.98;;;10.18;;
25009;SDS011;13026;49.486;10.926;2022-07-24T02:10:32;11.10;;;9.60;;
25009;SDS011;13026;49.486;10.926;2022-07-24T02:12:57;11.90;;;10.23;;
25009;SDS011;13026;49.486;10.926;2022-07-24T02:15:23;11.40;;;10.30;;
25009;SDS011;13026;49.486;10.926;2022-07-24T02:17:50;11.38;;;10.38;;
25009;SDS011;13026;49.486;10.926;2022-07-24T02:20:18;10.40;;;9.40;;
25009;SDS011;13026;49.486;10.926;2022-07-24T02:22:44;11.65;;;10.65;;
25009;SDS011;13026;49.486;10.926;2022-07-24T02:25:10;13.00;;;11.25;;
25009;SDS011;13026;49.486;10.926;2022-07-24T02:27:36;13.85;;;10.38;;
25009;SDS011;13026;49.486;10.926;2022-07-24T02:30:03;11.65;;;10.52;;
25009;SDS011;13026;49.486;10.926;2022-07-24T02:32:31;11.20;;;10.10;;
25009;SDS011;13026;49.486;10.926;2022-07-24T02:34:56;12.45;;;11.15;;
25009;SDS011;13026;49.486;10.926;2022-07-24T02:37:22;12.82;;;11.10;;
25009;SDS011;13026;49.486;10.926;2022-07-24T02:39:48;11.02;;;9.93;;
25009;SDS011;13026;49.486;10.926;2022-07-24T02:42:13;11.27;;;10.07;;
25009;SDS011;13026;49.486;10.926;2022-07-24T02:44:39;13.73;;;10.82;;
25009;SDS011;13026;49.486;10.926;2022-07-24T02:47:05;11.88;;;10.60;;
25009;SDS011;13026;49.486;10.926;2022-07-24T02:49:30;12.48;;;10.93;;
25009;SDS011;13026;49.486;10.926;2022-07-24T02:51:56;12.18;;;10.52;;
25009;SDS011;13026;49.486;10.926;2022-07-24T02:54:21;13.07;;;11.07;;
25009;SDS011;13026;49.486;10.926;2022-07-24T02:56:47;10.07;;;9.07;;
25009;SDS011;13026;49.486;10.926;2022-07-24T02:59:12;13.75;;;10.13;;
25009;SDS011;13026;49.486;10.926;2022-07-24T03:01:38;13.73;;;11.38;;
25009;SDS011;13026;49.486;10.926;2022-07-24T03:04:04;12.00;;;10.50;;
25009;SDS011;13026;49.486;10.926;2022-07-24T03:06:29;14.32;;;11.00;;
25009;SDS011;13026;49.486;10.926;2022-07-24T03:08:55;16.20;;;11.30;;
25009;SDS011;13026;49.486;10.926;2022-07-24T03:11:20;12.85;;;11.50;;
25009;SDS011;13026;49.486;10.926;2022-07-24T03:13:46;12.00;;;10.85;;
25009;SDS011;13026;49.486;10.926;2022-07-24T03:16:11;13.27;;;10.93;;
25009;SDS011;13026;49.486;10.926;2022-07-24T03:18:37;12.88;;;10.65;;
25009;SDS011;13026;49.486;10.926;2022-07-24T03:21:03;13.73;;;10.93;;
25009;SDS011;13026;49.486;10.926;2022-07-24T03:23:28;12.27;;;10.70;;
25009;SDS011;13026;49.486;10.926;2022-07-24T03:25:54;11.90;;;10.80;;
25009;SDS011;13026;49.486;10.926;2022-07-24T03:28:19;11.27;;;10.27;;
25009;SDS011;13026;49.486;10.926;2022-07-24T03:30:45;11.23;;;10.10;;
25009;SDS011;13026;49.486;10.926;2022-07-24T03:33:11;11.73;;;10.63;;
25009;SDS011;13026;49.486;10.926;2022-07-24T03:35:36;11.60;;;10.38;;
25009;SDS011;13026;49.486;10.926;2022-07-24T03:38:02;12.65;;;10.73;;
25009;SDS011;13026;49.486;10.926;2022-07-24T03:40:28;13.77;;;11.10;;
25009;SDS011;13026;49.486;10.926;2022-07-24T03:42:53;12.45;;;11.25;;
25009;SDS011;13026;49.486;10.926;2022-07-24T03:45:19;13.23;;;11.38;;
25009;SDS011;13026;49.486;10.926;2022-07-24T03:47:44;12.95;;;10.75;;
25009;SDS011;13026;49.486;10.926;2022-07-24T03:50:10;12.73;;;10.82;;
25009;SDS011;13026;49.486;10.926;2022-07-24T03:52:36;14.82;;;10.98;;
25009;SDS011;13026;49.486;10.926;2022-07-24T03:55:02;14.63;;;10.88;;
25009;SDS011;13026;49.486;10.926;2022-07-24T03:57:28;13.88;;;11.07;;
25009;SDS011;13026;49.486;10.926;2022-07-24T03:59:54;15.70;;;11.23;;
25009;SDS011;13026;49.486;10.926;2022-07-24T04:02:19;13.23;;;11.43;;
25009;SDS011;13026;49.486;10.926;2022-07-24T04:04:45;11.90;;;10.70;;
25009;SDS011;13026;49.486;10.926;2022-07-24T04:07:10;12.80;;;11.35;;
25009;SDS011;13026;49.486;10.926;2022-07-24T04:09:36;15.43;;;12.10;;
25009;SDS011;13026;49.486;10.926;2022-07-24T04:12:01;13.13;;;11.75;;
25009;SDS011;13026;49.486;10.926;2022-07-24T04:14:27;14.20;;;11.32;;
25009;SDS011;13026;49.486;10.926;2022-07-24T04:16:53;13.88;;;12.23;;
25009;SDS011;13026;49.486;10.926;2022-07-24T04:19:18;13.50;;;12.18;;
25009;SDS011;13026;49.486;10.926;2022-07-24T04:21:44;12.70;;;11.48;;
25009;SDS011;13026;49.486;10.926;2022-07-24T04:24:09;13.32;;;11.98;;
25009;SDS011;13026;49.486;10.926;2022-07-24T04:26:35;13.48;;;12.07;;
25009;SDS011;13026;49.486;10.926;2022-07-24T04:29:00;13.23;;;11.93;;
25009;SDS011;13026;49.486;10.926;2022-07-24T04:31:26;13.63;;;12.00;;
25009;SDS011;13026;49.486;10.926;2022-07-24T04:33:52;13.35;;;11.85;;
25009;SDS011;13026;49.486;10.926;2022-07-24T04:36:17;12.63;;;11.38;;
25009;SDS011;13026;49.486;10.926;2022-07-24T04:38:43;13.90;;;11.85;;
25009;SDS011;13026;49.486;10.926;2022-07-24T04:41:08;14.77;;;12.40;;
25009;SDS011;13026;49.486;10.926;2022-07-24T04:43:34;14.13;;;12.80;;
25009;SDS011;13026;49.486;10.926;2022-07-24T04:45:59;15.85;;;12.75;;
25009;SDS011;13026;49.486;10.926;2022-07-24T04:48:25;13.05;;;11.73;;
25009;SDS011;13026;49.486;10.926;2022-07-24T04:50:51;13.10;;;11.82;;
25009;SDS011;13026;49.486;10.926;2022-07-24T04:53:17;13.95;;;12.73;;
25009;SDS011;13026;49.486;10.926;2022-07-24T04:55:43;15.00;;;12.98;;
25009;SDS011;13026;49.486;10.926;2022-07-24T04:58:08;14.88;;;13.30;;
25009;SDS011;13026;49.486;10.926;2022-07-24T05:00:34;14.60;;;13.27;;
25009;SDS011;13026;49.486;10.926;2022-07-24T05:02:59;14.18;;;12.88;;
25009;SDS011;13026;49.486;10.926;2022-07-24T05:05:25;15.75;;;13.35;;
25009;SDS011;13026;49.486;10.926;2022-07-24T05:07:51;13.93;;;12.52;;
25009;SDS011;13026;49.486;10.926;2022-07-24T05:10:16;14.40;;;13.05;;
25009;SDS011;13026;49.486;10.926;2022-07-24T05:12:42;13.68;;;12.48;;
25009;SDS011;13026;49.486;10.926;2022-07-24T05:15:08;15.43;;;13.40;;
25009;SDS011;13026;49.486;10.926;2022-07-24T05:17:34;14.40;;;12.65;;
25009;SDS011;13026;49.486;10.926;2022-07-24T05:20:00;14.88;;;13.27;;
25009;SDS011;13026;49.486;10.926;2022-07-24T05:22:25;14.73;;;13.15;;
25009;SDS011;13026;49.486;10.926;2022-07-24T05:24:51;14.90;;;13.43;;
25009;SDS011;13026;49.486;10.926;2022-07-24T05:27:16;15.10;;;13.70;;
25009;SDS011;13026;49.486;10.926;2022-07-24T05:29:42;14.93;;;13.27;;
25009;SDS011;13026;49.486;10.926;2022-07-24T05:32:08;17.27;;;14.75;;
25009;SDS011;13026;49.486;10.926;2022-07-24T05:34:33;15.07;;;13.55;;
25009;SDS011;13026;49.486;10.926;2022-07-24T05:36:59;16.27;;;14.75;;
25009;SDS011;13026;49.486;10.926;2022-07-24T05:39:25;15.60;;;14.07;;
25009;SDS011;13026;49.486;10.926;2022-07-24T05:41:50;15.20;;;13.68;;
25009;SDS011;13026;49.486;10.926;2022-07-24T05:44:16;18.55;;;13.57;;
25009;SDS011;13026;49.486;10.926;2022-07-24T05:46:41;15.23;;;13.82;;
25009;SDS011;13026;49.486;10.926;2022-07-24T05:49:07;14.77;;;13.48;;
25009;SDS011;13026;49.486;10.926;2022-07-24T05:51:33;16.88;;;13.43;;
25009;SDS011;13026;49.486;10.926;2022-07-24T05:53:58;15.57;;;14.07;;
25009;SDS011;13026;49.486;10.926;2022-07-24T05:56:24;15.30;;;13.80;;
25009;SDS011;13026;49.486;10.926;2022-07-24T05:58:49;16.33;;;14.63;;
25009;SDS011;13026;49.486;10.926;2022-07-24T06:01:15;17.50;;;14.48;;
25009;SDS011;13026;49.486;10.926;2022-07-24T06:03:40;17.13;;;13.60;;
25009;SDS011;13026;49.486;10.926;2022-07-24T06:06:06;16.70;;;13.35;;
25009;SDS011;13026;49.486;10.926;2022-07-24T06:08:32;15.05;;;13.65;;
25009;SDS011;13026;49.486;10.926;2022-07-24T06:10:57;16.58;;;15.07;;
25009;SDS011;13026;49.486;10.926;2022-07-24T06:13:23;16.42;;;14.82;;
25009;SDS011;13026;49.486;10.926;2022-07-24T06:15:49;15.82;;;14.13;;
25009;SDS011;13026;49.486;10.926;2022-07-24T06:18:14;15.68;;;14.23;;
25009;SDS011;13026;49.486;10.926;2022-07-24T06:20:40;15.68;;;14.15;;
25009;SDS011;13026;49.486;10.926;2022-07-24T06:23:05;16.65;;;14.43;;
25009;SDS011;13026;49.486;10.926;2022-07-24T06:25:31;15.98;;;14.43;;
25009;SDS011;13026;49.486;10.926;2022-07-24T06:27:56;16.55;;;14.95;;
25009;SDS011;13026;49.486;10.926;2022-07-24T06:30:26;16.38;;;14.70;;
25009;SDS011;13026;49.486;10.926;2022-07-24T06:32:53;16.92;;;15.43;;
25009;SDS011;13026;49.486;10.926;2022-07-24T06:35:20;17.17;;;15.52;;
25009;SDS011;13026;49.486;10.926;2022-07-24T06:37:46;16.08;;;14.23;;
25009;SDS011;13026;49.486;10.926;2022-07-24T06:40:12;16.52;;;14.77;;
25009;SDS011;13026;49.486;10.926;2022-07-24T06:42:37;15.68;;;14.02;;
25009;SDS011;13026;49.486;10.926;2022-07-24T06:45:03;16.33;;;14.82;;
25009;SDS011;13026;49.486;10.926;2022-07-24T06:47:29;16.33;;;13.40;;
25009;SDS011;13026;49.486;10.926;2022-07-24T06:49:55;15.40;;;13.95;;
25009;SDS011;13026;49.486;10.926;2022-07-24T06:52:21;15.18;;;13.63;;
25009;SDS011;13026;49.486;10.926;2022-07-24T06:54:47;16.08;;;13.48;;
25009;SDS011;13026;49.486;10.926;2022-07-24T06:57:13;18.63;;;13.85;;
25009;SDS011;13026;49.486;10.926;2022-07-24T06:59:39;14.60;;;13.20;;
25009;SDS011;13026;49.486;10.926;2022-07-24T07:02:05;14.63;;;13.18;;
25009;SDS011;13026;49.486;10.926;2022-07-24T07:04:31;14.77;;;13.18;;
25009;SDS011;13026;49.486;10.926;2022-07-24T07:06:57;14.38;;;12.60;;
25009;SDS011;13026;49.486;10.926;2022-07-24T07:09:23;14.27;;;12.70;;
25009;SDS011;13026;49.486;10.926;2022-07-24T07:11:48;13.85;;;12.63;;
25009;SDS011;13026;49.486;10.926;2022-07-24T07:14:14;14.82;;;13.13;;
25009;SDS011;13026;49.486;10.926;2022-07-24T07:16:39;13.35;;;12.00;;
25009;SDS011;13026;49.486;10.926;2022-07-24T07:19:05;15.05;;;12.40;;
25009;SDS011;13026;49.486;10.926;2022-07-24T07:21:31;19.65;;;13.35;;
25009;SDS011;13026;49.486;10.926;2022-07-24T07:23:57;12.45;;;11.43;;
25009;SDS011;13026;49.486;10.926;2022-07-24T07:26:22;18.80;;;12.30;;
25009;SDS011;13026;49.486;10.926;2022-07-24T07:28:48;14.35;;;13.05;;
25009;SDS011;13026;49.486;10.926;2022-07-24T07:31:13;12.38;;;11.18;;
25009;SDS011;13026;49.486;10.926;2022-07-24T07:33:40;12.80;;;11.60;;
25009;SDS011;13026;49.486;10.926;2022-07-24T07:36:05;14.63;;;11.52;;
25009;SDS011;13026;49.486;10.926;2022-07-24T07:38:31;14.75;;;10.93;;
25009;SDS011;13026;49.486;10.926;2022-07-24T07:40:57;11.43;;;10.25;;
25009;SDS011;13026;49.486;10.926;2022-07-24T07:43:23;14.13;;;12.25;;
25009;SDS011;13026;49.486;10.926;2022-07-24T07:45:48;12.25;;;11.05;;
25009;SDS011;13026;49.486;10.926;2022-07-24T07:48:14;12.27;;;10.65;;
25009;SDS011;13026;49.486;10.926;2022-07-24T07:50:41;11.68;;;10.57;;
25009;SDS011;13026;49.486;10.926;2022-07-24T07:53:06;12.23;;;10.73;;
25009;SDS011;13026;49.486;10.926;2022-07-24T07:55:32;11.25;;;10.18;;
25009;SDS011;13026;49.486;10.926;2022-07-24T07:57:57;14.32;;;10.75;;
25009;SDS011;13026;49.486;10.926;2022-07-24T08:00:23;11.75;;;10.65;;
25009;SDS011;13026;49.486;10.926;2022-07-24T08:02:49;12.02;;;10.48;;
25009;SDS011;13026;49.486;10.926;2022-07-24T08:05:14;11.48;;;10.38;;
25009;SDS011;13026;49.486;10.926;2022-07-24T08:07:40;14.07;;;11.50;;
25009;SDS011;13026;49.486;10.926;2022-07-24T08:10:06;10.82;;;9.82;;
25009;SDS011;13026;49.486;10.926;2022-07-24T08:12:31;12.18;;;10.93;;
25009;SDS011;13026;49.486;10.926;2022-07-24T08:21:55;11.63;;;10.52;;
25009;SDS011;13026;49.486;10.926;2022-07-24T08:24:21;11.43;;;10.30;;
25009;SDS011;13026;49.486;10.926;2022-07-24T08:26:49;12.57;;;10.30;;
25009;SDS011;13026;49.486;10.926;2022-07-24T08:29:16;10.77;;;9.70;;
25009;SDS011;13026;49.486;10.926;2022-07-24T08:31:42;11.23;;;10.10;;
25009;SDS011;13026;49.486;10.926;2022-07-24T08:34:08;10.75;;;9.48;;
25009;SDS011;13026;49.486;10.926;2022-07-24T08:36:34;10.55;;;9.30;;
25009;SDS011;13026;49.486;10.926;2022-07-24T08:39:00;11.50;;;9.27;;
25009;SDS011;13026;49.486;10.926;2022-07-24T08:41:27;11.07;;;9.93;;
25009;SDS011;13026;49.486;10.926;2022-07-24T08:43:56;11.35;;;9.50;;
25009;SDS011;13026;49.486;10.926;2022-07-24T08:46:21;15.15;;;9.27;;
25009;SDS011;13026;49.486;10.926;2022-07-24T08:48:47;12.02;;;9.68;;
25009;SDS011;13026;49.486;10.926;2022-07-24T08:51:14;9.63;;;8.73;;
25009;SDS011;13026;49.486;10.926;2022-07-24T08:53:39;11.30;;;8.40;;
25009;SDS011;13026;49.486;10.926;2022-07-24T08:56:05;8.43;;;7.63;;
25009;SDS011;13026;49.486;10.926;2022-07-24T08:58:35;8.90;;;8.07;;
25009;SDS011;13026;49.486;10.926;2022-07-24T09:03:44;9.48;;;8.63;;
25009;SDS011;13026;49.486;10.926;2022-07-24T09:06:11;10.50;;;8.13;;
25009;SDS011;13026;49.486;10.926;2022-07-24T09:08:39;9.75;;;8.80;;
25009;SDS011;13026;49.486;10.926;2022-07-24T09:11:06;9.43;;;8.63;;
25009;SDS011;13026;49.486;10.926;2022-07-24T09:13:32;9.57;;;8.00;;
25009;SDS011;13026;49.486;10.926;2022-07-24T09:15:59;8.55;;;7.68;;
25009;SDS011;13026;49.486;10.926;2022-07-24T09:18:25;8.98;;;7.72;;
25009;SDS011;13026;49.486;10.926;2022-07-24T09:20:52;8.38;;;7.53;;
25009;SDS011;13026;49.486;10.926;2022-07-24T09:23:20;12.43;;;7.80;;
25009;SDS011;13026;49.486;10.926;2022-07-24T09:25:50;8.02;;;7.30;;
25009;SDS011;13026;49.486;10.926;2022-07-24T09:28:17;10.88;;;7.32;;
25009;SDS011;13026;49.486;10.926;2022-07-24T09:30:43;9.02;;;8.05;;
25009;SDS011;13026;49.486;10.926;2022-07-24T09:35:38;9.73;;;6.55;;
25009;SDS011;13026;49.486;10.926;2022-07-24T09:38:07;11.38;;;6.75;;
25009;SDS011;13026;49.486;10.926;2022-07-24T09:40:44;10.98;;;7.70;;
25009;SDS011;13026;49.486;10.926;2022-07-24T09:45:50;8.50;;;6.30;;
25009;SDS011;13026;49.486;10.926;2022-07-24T09:48:20;10.05;;;6.88;;
25009;SDS011;13026;49.486;10.926;2022-07-24T09:50:51;8.02;;;7.22;;
25009;SDS011;13026;49.486;10.926;2022-07-24T09:53:18;12.00;;;6.95;;
25009;SDS011;13026;49.486;10.926;2022-07-24T09:55:44;8.68;;;7.10;;
25009;SDS011;13026;49.486;10.926;2022-07-24T09:58:20;9.02;;;6.47;;
25009;SDS011;13026;49.486;10.926;2022-07-24T10:00:46;6.70;;;6.07;;
25009;SDS011;13026;49.486;10.926;2022-07-24T10:03:14;6.72;;;6.13;;
25009;SDS011;13026;49.486;10.926;2022-07-24T10:05:43;7.18;;;6.47;;
25009;SDS011;13026;49.486;10.926;2022-07-24T10:08:11;8.85;;;6.72;;
25009;SDS011;13026;49.486;10.926;2022-07-24T10:10:41;10.70;;;6.90;;
25009;SDS011;13026;49.486;10.926;2022-07-24T10:13:07;7.90;;;6.93;;
25009;SDS011;13026;49.486;10.926;2022-07-24T10:15:33;9.48;;;7.55;;
25009;SDS011;13026;49.486;10.926;2022-07-24T10:18:13;9.30;;;6.65;;
25009;SDS011;13026;49.486;10.926;2022-07-24T10:20:41;8.10;;;7.05;;
25009;SDS011;13026;49.486;10.926;2022-07-24T10:23:07;9.60;;;7.10;;
25009;SDS011;13026;49.486;10.926;2022-07-24T10:25:48;10.23;;;7.22;;
25009;SDS011;13026;49.486;10.926;2022-07-24T10:28:27;7.25;;;6.45;;
25009;SDS011;13026;49.486;10.926;2022-07-24T10:31:03;7.72;;;6.80;;
25009;SDS011;13026;49.486;10.926;2022-07-24T10:33:30;7.28;;;6.68;;
25009;SDS011;13026;49.486;10.926;2022-07-24T10:35:57;7.65;;;6.85;;
25009;SDS011;13026;49.486;10.926;2022-07-24T10:38:36;7.18;;;6.47;;
25009;SDS011;13026;49.486;10.926;2022-07-24T10:41:09;7.22;;;6.53;;
25009;SDS011;13026;49.486;10.926;2022-07-24T10:43:38;8.40;;;7.03;;
25009;SDS011;13026;49.486;10.926;2022-07-24T10:46:09;10.48;;;6.60;;
25009;SDS011;13026;49.486;10.926;2022-07-24T10:48:35;10.57;;;6.55;;
25009;SDS011;13026;49.486;10.926;2022-07-24T10:51:03;7.03;;;6.32;;
25009;SDS011;13026;49.486;10.926;2022-07-24T11:03:54;7.18;;;6.32;;
25009;SDS011;13026;49.486;10.926;2022-07-24T11:06:36;8.77;;;6.40;;
25009;SDS011;13026;49.486;10.926;2022-07-24T11:09:06;7.18;;;6.32;;
25009;SDS011;13026;49.486;10.926;2022-07-24T11:11:32;10.05;;;6.35;;
25009;SDS011;13026;49.486;10.926;2022-07-24T11:13:58;7.85;;;6.40;;
25009;SDS011;13026;49.486;10.926;2022-07-24T11:16:25;7.40;;;6.70;;
25009;SDS011;13026;49.486;10.926;2022-07-24T11:21:30;7.72;;;6.25;;
25009;SDS011;13026;49.486;10.926;2022-07-24T11:26:57;7.32;;;5.80;;
25009;SDS011;13026;49.486;10.926;2022-07-24T11:29:31;8.43;;;6.90;;
25009;SDS011;13026;49.486;10.926;2022-07-24T11:32:03;6.72;;;6.07;;
25009;SDS011;13026;49.486;10.926;2022-07-24T11:34:30;7.55;;;6.40;;
25009;SDS011;13026;49.486;10.926;2022-07-24T11:39:31;8.95;;;5.85;;
25009;SDS011;13026;49.486;10.926;2022-07-24T11:41:59;9.40;;;6.43;;
25009;SDS011;13026;49.486;10.926;2022-07-24T11:44:33;7.30;;;6.00;;
25009;SDS011;13026;49.486;10.926;2022-07-24T11:47:05;6.13;;;5.57;;
25009;SDS011;13026;49.486;10.926;2022-07-24T11:49:42;12.23;;;6.35;;
25009;SDS011;13026;49.486;10.926;2022-07-24T11:52:17;7.15;;;6.18;;
25009;SDS011;13026;49.486;10.926;2022-07-24T11:54:51;7.07;;;6.32;;
25009;SDS011;13026;49.486;10.926;2022-07-24T11:57:23;9.40;;;6.68;;
25009;SDS011;13026;49.486;10.926;2022-07-24T11:59:50;7.65;;;6.80;;
25009;SDS011;13026;49.486;10.926;2022-07-24T12:02:18;6.95;;;6.32;;
25009;SDS011;13026;49.486;10.926;2022-07-24T12:04:44;6.88;;;6.18;;
25009;SDS011;13026;49.486;10.926;2022-07-24T12:07:12;7.45;;;6.07;;
25009;SDS011;13026;49.486;10.926;2022-07-24T12:09:58;6.70;;;6.10;;
25009;SDS011;13026;49.486;10.926;2022-07-24T12:12:29;7.65;;;5.78;;
25009;SDS011;13026;49.486;10.926;2022-07-24T12:15:06;6.72;;;6.13;;
25009;SDS011;13026;49.486;10.926;2022-07-24T12:17:52;6.47;;;5.88;;
25009;SDS011;13026;49.486;10.926;2022-07-24T12:20:44;7.03;;;6.10;;
25009;SDS011;13026;49.486;10.926;2022-07-24T12:23:10;6.43;;;5.75;;
25009;SDS011;13026;49.486;10.926;2022-07-24T12:25:37;5.88;;;5.38;;
25009;SDS011;13026;49.486;10.926;2022-07-24T12:28:05;6.28;;;5.78;;
25009;SDS011;13026;49.486;10.926;2022-07-24T12:30:39;5.90;;;5.40;;
25009;SDS011;13026;49.486;10.926;2022-07-24T12:33:09;6.57;;;5.25;;
25009;SDS011;13026;49.486;10.926;2022-07-24T12:35:53;8.40;;;5.80;;
25009;SDS011;13026;49.486;10.926;2022-07-24T12:38:23;9.13;;;6.13;;
25009;SDS011;13026;49.486;10.926;2022-07-24T12:41:14;6.78;;;6.18;;
25009;SDS011;13026;49.486;10.926;2022-07-24T12:43:53;6.70;;;6.00;;
25009;SDS011;13026;49.486;10.926;2022-07-24T12:46:36;7.03;;;5.65;;
25009;SDS011;13026;49.486;10.926;2022-07-24T12:49:12;7.50;;;6.63;;
25009;SDS011;13026;49.486;10.926;2022-07-24T12:51:43;7.05;;;5.80;;
25009;SDS011;13026;49.486;10.926;2022-07-24T12:54:17;6.65;;;6.05;;
25009;SDS011;13026;49.486;10.926;2022-07-24T12:56:45;6.78;;;6.05;;
25009;SDS011;13026;49.486;10.926;2022-07-24T12:59:26;6.25;;;5.47;;
25009;SDS011;13026;49.486;10.926;2022-07-24T13:02:09;6.20;;;5.60;;
25009;SDS011;13026;49.486;10.926;2022-07-24T13:04:40;5.70;;;5.15;;
25009;SDS011;13026;49.486;10.926;2022-07-24T13:07:06;7.28;;;5.70;;
25009;SDS011;13026;49.486;10.926;2022-07-24T13:09:33;6.15;;;5.38;;
25009;SDS011;13026;49.486;10.926;2022-07-24T13:12:02;7.22;;;5.22;;
25009;SDS011;13026;49.486;10.926;2022-07-24T13:14:29;6.20;;;5.63;;
25009;SDS011;13026;49.486;10.926;2022-07-24T13:16:54;6.47;;;5.53;;
25009;SDS011;13026;49.486;10.926;2022-07-24T13:19:25;7.25;;;5.45;;
25009;SDS011;13026;49.486;10.926;2022-07-24T13:21:51;6.13;;;5.57;;
25009;SDS011;13026;49.486;10.926;2022-07-24T13:24:16;6.60;;;5.47;;
25009;SDS011;13026;49.486;10.926;2022-07-24T13:26:42;6.15;;;5.55;;
25009;SDS011;13026;49.486;10.926;2022-07-24T13:29:09;5.95;;;5.45;;
25009;SDS011;13026;49.486;10.926;2022-07-24T13:31:35;7.70;;;5.55;;
25009;SDS011;13026;49.486;10.926;2022-07-24T13:34:00;5.88;;;5.25;;
25009;SDS011;13026;49.486;10.926;2022-07-24T13:36:26;5.90;;;5.20;;
25009;SDS011;13026;49.486;10.926;2022-07-24T13:38:52;6.90;;;6.30;;
25009;SDS011;13026;49.486;10.926;2022-07-24T13:41:17;10.45;;;5.80;;
25009;SDS011;13026;49.486;10.926;2022-07-24T13:43:43;10.05;;;6.22;;
25009;SDS011;13026;49.486;10.926;2022-07-24T13:46:09;8.43;;;5.93;;
25009;SDS011;13026;49.486;10.926;2022-07-24T13:48:35;6.68;;;5.70;;
25009;SDS011;13026;49.486;10.926;2022-07-24T13:51:00;6.30;;;5.40;;
25009;SDS011;13026;49.486;10.926;2022-07-24T13:53:26;6.85;;;5.57;;
25009;SDS011;13026;49.486;10.926;2022-07-24T13:55:52;6.05;;;5.45;;
25009;SDS011;13026;49.486;10.926;2022-07-24T13:58:17;6.88;;;5.30;;
25009;SDS011;13026;49.486;10.926;2022-07-24T14:00:51;6.78;;;5.50;;
25009;SDS011;13026;49.486;10.926;2022-07-24T14:03:17;8.68;;;6.03;;
25009;SDS011;13026;49.486;10.926;2022-07-24T14:08:45;6.15;;;5.57;;
25009;SDS011;13026;49.486;10.926;2022-07-24T14:11:13;6.40;;;5.53;;
25009;SDS011;13026;49.486;10.926;2022-07-24T14:13:39;7.60;;;5.80;;
25009;SDS011;13026;49.486;10.926;2022-07-24T14:16:05;9.98;;;5.60;;
25009;SDS011;13026;49.486;10.926;2022-07-24T14:18:31;6.15;;;5.25;;
25009;SDS011;13026;49.486;10.926;2022-07-24T14:20:57;7.45;;;5.18;;
25009;SDS011;13026;49.486;10.926;2022-07-24T14:23:22;5.88;;;5.28;;
25009;SDS011;13026;49.486;10.926;2022-07-24T14:25:48;5.55;;;4.97;;
25009;SDS011;13026;49.486;10.926;2022-07-24T14:28:13;6.30;;;5.70;;
25009;SDS011;13026;49.486;10.926;2022-07-24T14:30:39;9.23;;;5.70;;
25009;SDS011;13026;49.486;10.926;2022-07-24T14:33:05;7.30;;;5.25;;
25009;SDS011;13026;49.486;10.926;2022-07-24T14:35:32;6.80;;;5.90;;
25009;SDS011;13026;49.486;10.926;2022-07-24T14:37:58;9.05;;;5.97;;
25009;SDS011;13026;49.486;10.926;2022-07-24T14:40:24;6.47;;;5.63;;
25009;SDS011;13026;49.486;10.926;2022-07-24T14:42:50;7.72;;;5.93;;
25009;SDS011;13026;49.486;10.926;2022-07-24T14:45:15;5.55;;;5.05;;
25009;SDS011;13026;49.486;10.926;2022-07-24T14:47:41;6.90;;;5.70;;
25009;SDS011;13026;49.486;10.926;2022-07-24T14:50:07;8.38;;;5.75;;
25009;SDS011;13026;49.486;10.926;2022-07-24T14:52:37;5.82;;;5.32;;
25009;SDS011;13026;49.486;10.926;2022-07-24T14:55:03;6.72;;;5.55;;
25009;SDS011;13026;49.486;10.926;2022-07-24T14:57:30;7.13;;;5.60;;
25009;SDS011;13026;49.486;10.926;2022-07-24T14:59:55;6.07;;;5.47;;